Twin Springs, Nevada Weather observations

Data are for observation ending at time listed.
 Day   Time    Ave.   Ave.  Ave.  Vector   Max.   Stn.    Total    Solar   Ave.  
  of    of     Air    Rel.  Wind   Wind    Wind   Baro.  Precip.   Rad.    Soil  
Year   Day     Temp.  Hum.  Speed  Dir.    Gust   Pres.                    Temp. 
2016   (PST)    F      %     mph   deg.    mph     mb.     in.     W/m2     F   
------------------------------------------------------------------------------
 344    2:00   20.1    52    3.7   321      7.0    850     0.00       0    35.3
 344    3:00   22.7    52    4.5   326      8.0    850     0.00       0    34.5
 344    4:00   21.7    54    6.1   336      8.0    850     0.00       0    33.9
 344    5:00   21.0    54    5.5   324      8.3    850     0.00       0    33.5
 344    6:00   21.9    52    4.4   331      6.8    850     0.00       0    33.1
 344    7:00   20.3    54    4.6   301      6.4    850     0.00       0    32.8
 344    8:00   21.3    53    3.7   322      5.6    850     0.00      43    32.5
 344    9:00   27.0    46    5.4   323      9.3    851     0.00     176    32.2
 344   10:00   29.8    43    4.5   309      7.3    851     0.00     147    32.5
 344   11:00   32.2    41    3.6   333      6.9    851     0.00     164    33.1
 344   12:00   35.6    37    1.9   305      6.4    850     0.00     301    33.9
 344   13:00   43.8    33    3.3   160     10.9    850     0.00     532    34.9
 344   14:00   44.5    38    7.8   148     12.1    849     0.00     406    37.1
 344   15:00   45.1    44    7.0   131     11.9    848     0.00     230    39.2
 344   16:00   44.2    48    5.5   122     10.6    848     0.00      69    40.5
 344   17:00   39.7    52    3.4   142      6.0    848     0.00       4    40.8
 344   18:00   36.7    56    3.6   118      7.1    848     0.00       0    40.5
 344   19:00   36.6    61    4.0   119      6.4    848     0.00       0    40.0
 344   20:00   34.6    67    1.9   140      5.6    848     0.00       0    39.4
 344   21:00   28.1    67    4.5   333      9.3    848     0.00       0    38.6
 344   22:00   26.1    72    1.8   345      5.4    848     0.00       0    37.8
 344   23:00   23.6    74    2.9   328      5.9    848     0.00       0    36.9
 345    0:00   20.7    73    2.8   319      5.6    848     0.00       0    36.1
 345    1:00   20.6    73    3.4   328      8.0    847     0.00       0    35.3

Return to Twin Springs, Nevada graphs page.


Western Regional Climate Center,wrcc@dri.edu